Station: Darwin Airport

  Atmospheric Gas Attenuation - ITU Rec 676-11   --------------- db/100km ---------------
Date Time Temp RH % AH g/m3 Dew Point Wind Direction Speed kph Gust kph Barometer mB Rainfall Since 9am 24GHz 47GHz 76GHz 122GHz 134GHz 241GHz
07 07:20 21 96 17.58 20.4 19 22 1012.8 0 38.3 39.2 74.4 196.7 214.3 743.9
07 07:10 21.1 96 17.69 20.5 13 15 1012.6 0 38.6 39.4 74.8 197.8 215.8 748.8
07 07:00 21.5 95 17.91 20.7 17 20 1012.4 0 39.0 39.6 75.5 199.6 218.0 756.8
07 06:50 22 93 18.05 20.8 13 15 1012.2 0 39.2 39.6 75.6 200.0 218.7 759.3
07 06:40 21.7 95 18.12 20.8 9 11 1011.9 0 39.4 39.9 76.2 201.7 220.7 766.1
07 06:30 21.6 95 18.02 20.7 7 9 1011.8 0 39.2 39.7 75.9 200.6 219.4 761.5
07 06:20 20.9 93 16.94 19.8 4 4 1011.6 0 37.0 38.0 71.3 188.6 204.4 709.4
07 06:10 20.3 92 16.18 18.9 6 6 1011.4 0 35.4 36.8 68.3 180.5 194.3 674.0
07 06:00 20.8 92 16.66 19.4 7 7 1011.3 0 36.4 37.5 70.1 185.3 200.3 695.1
07 05:50 20.1 93 16.16 19 9 9 1011.2 0 35.4 36.8 68.4 180.7 194.5 674.6
07 05:40 19.6 93 15.7 18.5 7 7 1011.1 0 34.4 36.2 66.7 176.1 188.7 654.4
07 05:30 19.8 93 15.88 18.7 9 9 1011 0 34.8 36.4 67.3 177.9 190.9 662.2
07 05:20 19.6 91 15.36 18.1 6 6 1011 0 33.7 35.5 65.1 171.9 183.5 636.4
07 05:10 19.6 91 15.36 18.1 6 6 1011 0 33.7 35.5 65.1 171.9 183.5 636.4
07 04:50 19.7 92 15.62 18.4 6 6 1011 0 34.3 36.0 66.2 174.9 187.2 649.3
07 04:40 20.2 92 16.08 18.9 6 6 1010.9 0 35.2 36.6 67.9 179.4 192.9 669.3
07 04:30 19.8 92 15.71 18.5 6 7 1010.6 0 34.4 36.1 66.5 175.7 188.3 653.0
07 04:20 20.1 92 15.99 18.8 7 7 1010.8 0 35.0 36.5 67.6 178.5 191.8 665.4
07 04:10 19.6 92 15.53 18.3 6 6 1010.8 0 34.1 35.8 65.8 174.0 186.1 645.3
07 04:00 20 93 16.07 18.9 7 7 1010.6 0 35.2 36.7 68.0 179.7 193.3 670.4
07 03:50 19.9 90 15.46 18.3 6 6 1010.8 0 33.9 35.6 65.3 172.4 184.3 639.1
07 03:40 19.8 92 15.71 18.4 6 7 1010.9 0 34.4 36.1 66.5 175.8 188.3 653.2
07 03:30 19.8 90 15.37 18.2 6 7 1010.8 0 33.7 35.5 64.9 171.5 183.2 635.2
07 03:20 19.7 90 15.28 18.1 4 4 1011.1 0 33.5 35.3 64.6 170.7 182.1 631.4
07 03:10 19.8 89 15.2 18 7 7 1011.1 0 33.3 35.2 64.2 169.5 180.6 626.4
07 03:00 20.1 89 15.47 18.2 7 7 1010.9 0 33.9 35.5 65.1 172.1 183.9 637.9
07 02:50 20.1 89 15.47 18.2 6 6 1011.1 0 33.9 35.5 65.2 172.1 184.0 638.0
07 02:40 20.2 89 15.56 18.4 7 7 1011.2 0 34.1 35.7 65.5 173.0 185.1 642.0
07 02:30 20.4 88 15.57 18.3 6 7 1011 0 34.1 35.6 65.4 172.7 184.7 640.7
07 02:20 20.5 87 15.48 18.3 6 6 1011.2 0 33.9 35.4 64.9 171.4 183.2 635.2
07 02:10 20.4 88 15.57 18.3 4 6 1011.2 0 34.1 35.6 65.4 172.7 184.7 640.8
07 02:00 20.4 88 15.57 18.3 6 6 1011.1 0 34.1 35.6 65.4 172.7 184.7 640.7
07 01:50 21.4 86 16.12 18.9 6 6 1011.3 0 35.2 36.2 67.0 177.2 190.5 661.1
07 01:40 21 86 15.75 18.6 7 7 1011.3 0 34.4 35.7 65.7 173.5 186.0 645.2
07 01:30 21.1 87 16.03 18.9 4 6 1011.3 0 35.0 36.2 66.9 176.7 189.9 659.0
07 01:20 21.4 86 16.12 18.9 4 6 1011.5 0 35.2 36.2 67.0 177.2 190.6 661.2
07 01:10 21.8 83 15.92 18.8 4 6 1011.5 0 34.7 35.7 65.8 173.8 186.6 647.3
07 01:00 22.2 83 16.29 19.2 7 9 1011.4 0 35.5 36.2 67.1 177.4 191.1 663.0
07 00:50 22.5 80 15.98 19 9 9 1011.7 0 34.8 35.5 65.5 173.0 185.7 644.6
07 00:40 22.8 79 16.05 19 7 9 1011.8 0 34.9 35.5 65.5 173.2 186.1 645.7
07 00:30 22.9 78 15.94 19 9 11 1011.6 0 34.7 35.2 64.9 171.6 184.2 639.1
07 00:20 22.5 80 15.98 19 9 9 1011.8 0 34.8 35.5 65.5 173.0 185.8 644.6
07 00:10 22 83 16.11 19 6 6 1012 0 35.1 35.9 66.5 175.7 189.0 655.7
07 00:00 22.4 80 15.89 18.9 6 7 1012 0 34.6 35.4 65.2 172.2 184.7 640.9
06 23:50 22.9 78 15.94 19 7 7 1012 0 34.7 35.3 65.0 171.6 184.2 639.3
06 23:40 23.2 78 16.21 19.1 7 9 1012.1 0 35.2 35.6 65.9 174.2 187.5 650.6
06 23:30 23.3 77 16.1 19.1 7 9 1012.2 0 35.0 35.4 65.4 172.7 185.6 644.2
06 23:20 23.5 76 16.07 19.1 9 9 1012.2 0 34.9 35.3 65.0 171.9 184.7 641.0
06 23:10 23.5 77 16.28 19.3 7 7 1012.3 0 35.3 35.6 66.0 174.4 187.8 651.7
06 23:00 23.6 76 16.16 19.2 9 9 1012.2 0 35.1 35.4 65.4 172.7 185.8 644.7
06 22:50 23.5 78 16.49 19.4 9 11 1012.2 0 35.8 36.0 66.9 176.9 190.8 662.5
06 22:40 23.6 76 16.16 19.2 11 13 1012.2 0 35.1 35.4 65.4 172.7 185.8 644.7
06 22:30 23.9 75 16.22 19.2 11 11 1012.1 0 35.2 35.4 65.4 172.8 185.9 645.2
06 22:20 24.2 72 15.84 19 9 11 1012 0 34.3 34.5 63.4 167.6 179.6 623.5
06 22:10 24.1 74 16.19 19.3 7 7 1012.1 0 35.1 35.2 65.1 171.9 184.9 642.0
06 22:00 24 76 16.53 19.5 7 9 1012.1 0 35.8 35.9 66.7 176.2 190.2 660.1
06 21:50 24.2 75 16.5 19.5 7 9 1012.1 0 35.7 35.7 66.4 175.4 189.2 656.9
06 21:40 24.4 73 16.25 19.4 9 9 1012 0 35.2 35.2 65.1 172.0 185.1 642.5
06 21:30 24.5 73 16.34 19.4 7 9 1011.9 0 35.4 35.3 65.4 172.8 186.1 646.1
06 21:20 24.6 73 16.43 19.5 9 11 1011.9 0 35.5 35.4 65.7 173.6 187.2 649.8
06 21:10 24.6 73 16.43 19.5 11 13 1011.7 0 35.5 35.4 65.7 173.6 187.1 649.7
06 21:00 24.6 73 16.43 19.5 9 11 1011.5 0 35.6 35.4 65.7 173.6 187.1 649.6
06 20:50 24.8 72 16.39 19.4 11 13 1011.5 0 35.4 35.3 65.3 172.7 186.1 645.9
06 20:40 24.8 72 16.39 19.4 11 13 1011.4 0 35.4 35.3 65.3 172.6 186.0 645.9
06 20:30 24.9 72 16.48 19.5 11 15 1011.4 0 35.6 35.4 65.6 173.5 187.1 649.6
06 20:20 24.9 72 16.48 19.6 11 13 1011.3 0 35.6 35.4 65.6 173.5 187.1 649.5
06 20:10 25 72 16.57 19.7 13 15 1011.1 0 35.8 35.5 65.9 174.3 188.1 653.1
06 20:00 25.1 73 16.9 19.9 15 17 1010.9 0 36.5 36.0 67.3 177.9 192.6 668.9
06 19:50 25.2 71 16.53 19.6 15 17 1010.7 0 35.7 35.3 65.6 173.3 187.0 649.2
06 19:40 25.3 71 16.62 19.7 15 19 1010.6 0 35.9 35.4 65.9 174.1 188.0 652.9
06 19:30 25.4 70 16.48 19.5 19 24 1010.5 0 35.6 35.1 65.2 172.2 185.7 644.9
06 19:20 25.4 70 16.48 19.5 19 20 1010.4 0 35.6 35.1 65.1 172.2 185.7 644.9
06 19:10 25.6 69 16.43 19.6 20 26 1010.4 0 35.5 35.0 64.8 171.2 184.5 640.7
06 19:00 25.7 68 16.28 19.5 22 26 1010.2 0 35.1 34.6 64.0 169.2 182.1 632.4
06 18:50 25.9 67 16.22 19.4 19 24 1010.3 0 35.0 34.5 63.6 168.1 180.8 627.8
06 18:40 26.1 66 16.16 19.4 15 19 1010.2 0 34.9 34.3 63.2 166.9 179.5 623.2
06 18:30 26.4 65 16.18 19.4 17 20 1010.1 0 34.9 34.2 63.0 166.5 179.0 621.7
06 18:20 26.8 64 16.29 19.6 20 24 1010 0 35.1 34.2 63.1 166.9 179.6 623.8
06 18:10 27.2 62 16.13 19.3 19 22 1010 0 34.7 33.8 62.1 164.2 176.5 612.9
06 18:00 27.2 62 16.13 19.3 20 26 1010 0 34.7 33.8 62.1 164.2 176.5 612.9
06 17:50 27.5 61 16.14 19.3 22 26 1010 0 34.7 33.7 61.9 163.7 175.9 611.0
06 17:40 27.8 58 15.6 19 22 28 1009.9 0 33.5 32.7 59.4 157.1 167.8 582.9
06 17:30 28.1 57 15.59 19 19 22 1009.9 0 33.5 32.5 59.2 156.4 167.1 580.2
06 17:20 28.3 57 15.76 19 20 20 1009.8 0 33.8 32.7 59.7 157.8 168.9 586.6
06 17:10 28.1 58 15.86 19.1 24 26 1009.7 0 34.1 33.0 60.3 159.3 170.7 592.8
06 17:00 28.4 58 16.12 19.5 19 24 1009.7 0 34.6 33.3 61.1 161.6 173.6 602.9
06 16:50 28.8 56 15.91 19.3 24 28 1009.7 0 34.1 32.8 59.9 158.4 169.8 589.9
06 16:40 29 54 15.51 18.8 22 26 1009.6 0 33.3 32.0 58.2 153.7 164.0 569.7
06 16:30 28.7 55 15.54 18.8 20 24 1009.6 0 33.3 32.2 58.5 154.6 165.1 573.3
06 16:20 28.7 55 15.54 19 20 24 1009.5 0 33.3 32.2 58.5 154.6 165.1 573.3
06 16:10 29.3 55 16.06 19.3 26 28 1009.4 0 34.4 32.8 60.2 159.0 170.7 593.0
06 16:00 29.8 53 15.9 19.2 20 24 1009.4 0 34.0 32.4 59.1 156.3 167.5 581.8
06 15:50 29.4 53 15.56 18.9 26 28 1009.4 0 33.3 32.0 58.1 153.4 163.8 569.0
06 15:40 29.3 53 15.48 19 22 26 1009.5 0 33.2 31.9 57.8 152.8 163.0 566.1
06 15:30 29.4 52 15.27 18.5 28 32 1009.5 0 32.7 31.5 56.9 150.3 160.0 555.8
06 15:20 29.5 51 15.05 18.5 28 32 1009.6 0 32.3 31.1 55.9 147.8 156.9 545.1
06 15:10 30 50 15.17 18.7 24 32 1009.7 0 32.5 31.1 56.1 148.1 157.5 547.1
06 15:00 29.5 52 15.35 18.8 30 32 1009.9 0 32.9 31.6 57.2 151.0 160.9 558.9
06 14:50 29.8 53 15.9 19.2 28 32 1010 0 34.0 32.4 59.2 156.4 167.5 582.1
06 14:40 30.1 51 15.55 19 26 32 1010 0 33.2 31.7 57.5 152.0 162.3 563.8

Last Refresh: 07-Aug-2020 07:33:41

Most of the information presented on this site is sourced from the Bureau of Meteorology.  Copyright in all material sourced from the Bureau of Meteorology resides with the Commonwealth of Australia.